Time;durP1;ratioP1;P1;durP2;ratioP2;P2;SDS_P1;SDS_P2;PMS_P1;PMS_P2;Temp;Humidity;BMP_temperature;BMP_pressure;BME280_temperature;BME280_humidity;BME280_pressure;Samples;Min_cycle;Max_cycle;Signal;HPM_P1;HPM_P2
2022/03/19 00:00:55;;;;;;;9.93;5.77;;;7.10;99.90;;;;;;5033172;28;20181;-42
2022/03/19 00:03:20;;;;;;;11.97;5.37;;;7.00;99.90;;;;;;5033766;28;20210;-45
2022/03/19 00:05:47;;;;;;;7.47;4.83;;;7.00;99.90;;;;;;5033693;28;20679;-44
2022/03/19 00:08:16;;;;;;;9.00;5.67;;;6.90;99.90;;;;;;5033124;28;20180;-43
2022/03/19 00:10:42;;;;;;;12.80;5.77;;;6.80;99.90;;;;;;5032910;28;20200;-45
2022/03/19 00:13:09;;;;;;;14.13;5.40;;;6.80;99.90;;;;;;5033151;28;20568;-44
2022/03/19 00:15:35;;;;;;;14.07;5.10;;;6.70;99.90;;;;;;5033177;28;20184;-44
2022/03/19 00:18:01;;;;;;;9.37;5.27;;;6.60;99.90;;;;;;5032751;28;20288;-44
2022/03/19 00:20:27;;;;;;;10.00;5.20;;;6.50;99.90;;;;;;5032803;28;20207;-44
2022/03/19 00:22:52;;;;;;;9.67;5.67;;;6.30;99.90;;;;;;5032916;28;20180;-45
2022/03/19 00:25:18;;;;;;;10.03;5.33;;;6.20;99.90;;;;;;5015126;28;20211;-45
2022/03/19 00:27:43;;;;;;;17.43;5.87;;;6.10;99.90;;;;;;5032724;28;20220;-44
2022/03/19 00:30:10;;;;;;;12.37;5.80;;;6.10;99.90;;;;;;5035132;28;20207;-45
2022/03/19 00:32:36;;;;;;;11.00;4.97;;;6.00;99.90;;;;;;5036461;28;20214;-40
2022/03/19 00:35:03;;;;;;;12.97;5.87;;;6.00;99.90;;;;;;5036719;28;20182;-40
2022/03/19 00:37:28;;;;;;;9.20;5.17;;;5.90;99.90;;;;;;5036715;28;20193;-38
2022/03/19 00:39:54;;;;;;;10.87;5.70;;;5.90;99.90;;;;;;5036416;28;20200;-39
2022/03/19 00:42:19;;;;;;;10.60;5.40;;;5.80;99.90;;;;;;5036388;28;20212;-37
2022/03/19 00:44:47;;;;;;;12.33;5.33;;;5.80;99.90;;;;;;5036426;28;20190;-40
2022/03/19 00:47:12;;;;;;;11.70;5.23;;;5.70;99.90;;;;;;5036750;28;20602;-40
2022/03/19 00:49:38;;;;;;;10.67;5.63;;;5.70;99.90;;;;;;5036723;28;20207;-41
2022/03/19 00:52:04;;;;;;;15.10;6.50;;;5.70;99.90;;;;;;5037224;28;20204;-40
2022/03/19 00:54:30;;;;;;;8.93;5.77;;;5.70;99.90;;;;;;5037596;28;20179;-40
2022/03/19 00:56:56;;;;;;;11.87;5.53;;;5.60;99.90;;;;;;5036991;28;20194;-40
2022/03/19 00:59:21;;;;;;;12.60;5.40;;;5.60;99.90;;;;;;5035984;28;20248;-39
2022/03/19 01:01:47;;;;;;;15.60;5.80;;;5.60;99.90;;;;;;5036065;28;20188;-39
2022/03/19 01:04:13;;;;;;;17.37;6.40;;;5.50;99.90;;;;;;5036197;28;20191;-42
2022/03/19 01:06:39;;;;;;;7.90;5.23;;;5.50;99.90;;;;;;5035904;28;20647;-40
2022/03/19 01:09:05;;;;;;;11.47;5.40;;;5.50;99.90;;;;;;5035906;28;20208;-39
2022/03/19 01:11:30;;;;;;;15.60;5.77;;;5.40;99.90;;;;;;5035993;28;20207;-40
2022/03/19 01:13:56;;;;;;;13.80;5.70;;;5.30;99.90;;;;;;5036283;28;20643;-41
2022/03/19 01:16:22;;;;;;;14.43;5.50;;;5.20;99.90;;;;;;5035796;28;20232;-42
2022/03/19 01:18:51;;;;;;;12.57;6.17;;;5.20;99.90;;;;;;5035554;28;20217;-40
2022/03/19 01:21:18;;;;;;;12.80;6.10;;;5.10;99.90;;;;;;5035961;28;20176;-39
2022/03/19 01:23:44;;;;;;;19.97;6.37;;;5.10;99.90;;;;;;5035602;28;20690;-40
2022/03/19 01:26:09;;;;;;;11.20;5.07;;;5.10;99.90;;;;;;5035508;28;20641;-40
2022/03/19 01:28:35;;;;;;;13.03;5.30;;;5.10;99.90;;;;;;5017767;28;20267;-39
2022/03/19 01:31:02;;;;;;;11.33;5.57;;;5.00;99.90;;;;;;5035345;28;20216;-40
2022/03/19 01:33:27;;;;;;;13.30;6.10;;;5.00;99.90;;;;;;5035861;28;20269;-40
2022/03/19 01:35:53;;;;;;;13.53;5.80;;;5.00;99.90;;;;;;5035691;28;20238;-41
2022/03/19 01:38:19;;;;;;;13.33;6.03;;;5.10;99.90;;;;;;5035995;28;20715;-39
2022/03/19 01:40:45;;;;;;;12.67;5.27;;;5.10;99.90;;;;;;5034822;28;20647;-40
2022/03/19 01:43:10;;;;;;;13.13;5.53;;;5.00;99.90;;;;;;5035475;28;20177;-39
2022/03/19 01:45:36;;;;;;;9.63;5.43;;;5.10;99.90;;;;;;5035403;28;20260;-41
2022/03/19 01:48:02;;;;;;;14.87;5.83;;;5.00;99.90;;;;;;5035081;28;20177;-40
2022/03/19 01:50:28;;;;;;;14.33;5.73;;;5.00;99.90;;;;;;5035029;28;20184;-40
2022/03/19 01:52:55;;;;;;;15.13;6.13;;;5.00;99.90;;;;;;5034871;28;20221;-40
2022/03/19 01:55:23;;;;;;;14.60;6.27;;;5.10;99.90;;;;;;5035218;28;20196;-39
2022/03/19 01:57:50;;;;;;;15.47;6.03;;;5.20;99.90;;;;;;5034928;28;20175;-40
2022/03/19 02:00:18;;;;;;;13.60;6.03;;;5.30;99.90;;;;;;5034961;28;20202;-42
2022/03/19 02:02:46;;;;;;;15.20;6.50;;;5.30;99.90;;;;;;5035070;28;20189;-39
2022/03/19 02:05:20;;;;;;;13.80;5.67;;;5.20;99.90;;;;;;5034695;28;20240;-40
2022/03/19 02:07:47;;;;;;;16.10;6.17;;;5.20;99.90;;;;;;5034963;28;20190;-38
2022/03/19 02:10:15;;;;;;;14.43;5.90;;;5.20;99.90;;;;;;5034743;28;20236;-41
2022/03/19 02:12:42;;;;;;;14.40;6.60;;;5.10;99.90;;;;;;5033309;28;20725;-43
2022/03/19 02:15:09;;;;;;;13.93;6.50;;;5.10;99.90;;;;;;5034529;28;20177;-45
2022/03/19 02:17:34;;;;;;;17.77;6.90;;;5.10;99.90;;;;;;5034619;28;20571;-45
2022/03/19 02:20:02;;;;;;;14.13;6.87;;;5.10;99.90;;;;;;5034352;28;20209;-44
2022/03/19 02:22:28;;;;;;;17.97;6.83;;;5.20;99.90;;;;;;5034378;28;20190;-42
2022/03/19 02:27:39;;;;;;;26.47;8.13;;;5.20;99.90;;;;;;5034600;28;20224;-44
2022/03/19 02:30:07;;;;;;;14.07;7.37;;;5.20;99.90;;;;;;5034520;28;20200;-44
2022/03/19 02:32:34;;;;;;;19.03;7.00;;;5.20;99.90;;;;;;5034152;28;20209;-43
2022/03/19 02:34:59;;;;;;;11.50;6.20;;;5.20;99.90;;;;;;5034528;28;20220;-45
2022/03/19 02:37:25;;;;;;;15.47;6.80;;;5.20;99.90;;;;;;5034725;28;20212;-44
2022/03/19 02:39:51;;;;;;;12.67;7.50;;;5.30;99.90;;;;;;5034398;28;20213;-45
2022/03/19 02:42:20;;;;;;;11.23;6.77;;;5.30;99.90;;;;;;5034238;28;20212;-44
2022/03/19 02:44:46;;;;;;;19.40;6.90;;;5.30;99.90;;;;;;5034276;28;20234;-46
2022/03/19 02:47:12;;;;;;;10.90;6.57;;;5.30;99.90;;;;;;5016331;28;20224;-44
2022/03/19 02:49:39;;;;;;;18.70;7.27;;;5.30;99.90;;;;;;5033870;28;20201;-45
2022/03/19 02:52:05;;;;;;;19.47;7.47;;;5.20;99.90;;;;;;5025684;28;20259;-44
2022/03/19 02:54:31;;;;;;;12.10;6.50;;;5.20;99.90;;;;;;5034455;28;20215;-45
2022/03/19 02:56:58;;;;;;;16.70;7.23;;;5.10;99.90;;;;;;5033908;28;20172;-43
2022/03/19 02:59:26;;;;;;;13.77;7.03;;;5.20;99.90;;;;;;5033549;28;20204;-46
2022/03/19 03:02:00;;;;;;;12.77;7.50;;;5.10;99.90;;;;;;5033843;28;20185;-44
2022/03/19 03:04:27;;;;;;;17.20;7.20;;;5.10;99.90;;;;;;5034072;28;20641;-45
2022/03/19 03:06:58;;;;;;;15.77;6.90;;;5.10;99.90;;;;;;5034417;28;20260;-44
2022/03/19 03:09:26;;;;;;;16.30;6.60;;;5.00;99.90;;;;;;5017321;28;20292;-45
2022/03/19 03:11:53;;;;;;;14.77;6.63;;;4.90;99.90;;;;;;5034855;28;20275;-43
2022/03/19 03:14:22;;;;;;;15.80;6.23;;;4.80;99.90;;;;;;5016259;28;20180;-45
2022/03/19 03:16:52;;;;;;;12.00;6.57;;;4.80;99.90;;;;;;5016228;28;20169;-46
2022/03/19 03:19:19;;;;;;;20.67;6.47;;;4.70;99.90;;;;;;5033459;28;20205;-44
2022/03/19 03:21:45;;;;;;;15.67;6.73;;;4.70;99.90;;;;;;5033737;28;20192;-45
2022/03/19 03:24:12;;;;;;;15.27;6.63;;;4.60;99.90;;;;;;5033708;28;20248;-44
2022/03/19 03:26:38;;;;;;;12.50;6.67;;;4.60;99.90;;;;;;5033551;28;20185;-43
2022/03/19 03:29:06;;;;;;;15.93;7.03;;;4.60;99.90;;;;;;5025556;28;20242;-44
2022/03/19 03:31:32;;;;;;;13.00;5.90;;;4.60;99.90;;;;;;5033198;28;20695;-44
2022/03/19 03:33:58;;;;;;;12.93;6.43;;;4.50;99.90;;;;;;5033412;28;20177;-46
2022/03/19 03:36:24;;;;;;;17.13;6.90;;;4.50;99.90;;;;;;5015656;28;20188;-44
2022/03/19 03:38:50;;;;;;;9.47;6.57;;;4.50;99.90;;;;;;5033540;28;20657;-45
2022/03/19 03:41:16;;;;;;;14.10;6.83;;;4.40;99.90;;;;;;5033386;28;20533;-43
2022/03/19 03:43:42;;;;;;;11.77;6.50;;;4.40;99.90;;;;;;5033463;28;20257;-46
2022/03/19 03:46:07;;;;;;;10.97;5.63;;;4.40;99.90;;;;;;5034445;28;20644;-45
2022/03/19 03:48:35;;;;;;;15.93;6.27;;;4.30;99.90;;;;;;5033239;28;20201;-45
2022/03/19 03:51:02;;;;;;;18.07;6.40;;;4.30;99.90;;;;;;5033291;28;20538;-44
2022/03/19 03:53:28;;;;;;;12.27;6.37;;;4.20;99.90;;;;;;5033203;28;20184;-43
2022/03/19 03:55:54;;;;;;;11.70;6.60;;;4.20;99.90;;;;;;5033439;28;20200;-44
2022/03/19 03:58:21;;;;;;;16.90;6.70;;;4.20;99.90;;;;;;5033299;28;20257;-44
2022/03/19 04:00:46;;;;;;;19.50;6.80;;;4.10;99.90;;;;;;5033164;28;20228;-44
2022/03/19 04:03:12;;;;;;;14.37;6.53;;;4.20;99.90;;;;;;5033036;28;20177;-47
2022/03/19 04:05:38;;;;;;;14.43;6.73;;;4.10;99.90;;;;;;5036638;28;20173;-45
2022/03/19 04:08:05;;;;;;;14.50;6.40;;;4.10;99.90;;;;;;5037300;28;20533;-44
2022/03/19 04:10:32;;;;;;;16.10;6.33;;;4.10;99.90;;;;;;5037326;28;20188;-45
2022/03/19 04:12:58;;;;;;;11.63;5.90;;;4.00;99.90;;;;;;5036837;28;20207;-46
2022/03/19 04:15:24;;;;;;;12.93;6.60;;;4.10;99.90;;;;;;5036958;28;20181;-45
2022/03/19 04:17:50;;;;;;;9.87;5.83;;;4.00;99.90;;;;;;5036774;28;20188;-45
2022/03/19 04:20:16;;;;;;;11.00;6.63;;;4.00;99.90;;;;;;5036655;28;20282;-44
2022/03/19 04:22:47;;;;;;;11.33;6.13;;;4.00;99.90;;;;;;5036913;28;20195;-43
2022/03/19 04:25:17;;;;;;;10.23;5.77;;;3.90;99.90;;;;;;5036908;28;20165;-44
2022/03/19 04:27:44;;;;;;;11.57;5.63;;;3.80;99.90;;;;;;5036803;28;20667;-47
2022/03/19 04:30:12;;;;;;;8.93;5.70;;;3.70;99.90;;;;;;5036531;28;20204;-44
2022/03/19 04:32:43;;;;;;;11.37;5.70;;;3.60;99.90;;;;;;5035509;28;20232;-43
2022/03/19 04:37:56;;;;;;;15.80;5.70;;;3.40;99.90;;;;;;5037020;28;20168;-46
2022/03/19 04:40:22;;;;;;;13.77;5.17;;;3.30;99.90;;;;;;5036471;28;20279;-42
2022/03/19 04:42:47;;;;;;;10.30;5.17;;;3.30;99.90;;;;;;5036662;28;20208;-43
2022/03/19 04:45:13;;;;;;;8.00;5.13;;;3.20;99.90;;;;;;5036635;28;20267;-46
2022/03/19 04:47:39;;;;;;;12.07;6.07;;;3.10;99.90;;;;;;5035305;28;20177;-45
2022/03/19 04:50:05;;;;;;;11.23;5.53;;;3.10;99.90;;;;;;5036422;28;20200;-42
2022/03/19 04:52:32;;;;;;;17.33;5.83;;;3.10;99.90;;;;;;5036345;28;20205;-44
2022/03/19 04:55:00;;;;;;;11.67;5.87;;;3.00;99.90;;;;;;5036948;28;20264;-44
2022/03/19 04:57:27;;;;;;;11.50;5.73;;;3.00;99.90;;;;;;5036487;28;20217;-44
2022/03/19 04:59:53;;;;;;;12.67;7.00;;;3.00;99.90;;;;;;5036311;28;20207;-44
2022/03/19 05:02:20;;;;;;;15.47;7.03;;;3.00;99.90;;;;;;5036200;28;20221;-44
2022/03/19 05:04:45;;;;;;;56.50;32.57;;;2.90;99.90;;;;;;5035966;28;20268;-47
2022/03/19 05:07:11;;;;;;;38.87;22.27;;;2.90;99.90;;;;;;5036037;28;20219;-44
2022/03/19 05:12:35;;;;;;;22.17;11.50;;;2.80;99.90;;;;;;5035740;28;20251;-44
2022/03/19 05:15:00;;;;;;;15.30;7.03;;;2.80;99.90;;;;;;5035398;28;20169;-43
2022/03/19 05:17:26;;;;;;;17.27;6.63;;;2.80;99.90;;;;;;5034799;28;20716;-44
2022/03/19 05:19:53;;;;;;;11.83;7.10;;;2.70;99.90;;;;;;5035451;28;20660;-43
2022/03/19 05:22:19;;;;;;;14.03;6.50;;;2.70;99.90;;;;;;5017960;28;20180;-45
2022/03/19 05:24:45;;;;;;;15.10;6.93;;;2.70;99.90;;;;;;5035516;28;20203;-45
2022/03/19 05:27:11;;;;;;;15.57;7.10;;;2.70;99.90;;;;;;5035466;28;20672;-46
2022/03/19 05:29:37;;;;;;;13.00;7.13;;;2.60;99.90;;;;;;5035392;28;20243;-43
2022/03/19 05:32:05;;;;;;;14.00;7.43;;;2.70;99.90;;;;;;5035388;28;20208;-45
2022/03/19 05:34:31;;;;;;;14.77;8.50;;;2.70;99.90;;;;;;5035199;28;20188;-44
2022/03/19 05:37:03;;;;;;;14.10;7.43;;;2.70;99.90;;;;;;5035413;28;20183;-44
2022/03/19 05:39:30;;;;;;;15.07;7.57;;;2.70;99.90;;;;;;5035542;28;20208;-45
2022/03/19 05:41:56;;;;;;;14.60;7.53;;;2.70;99.90;;;;;;5035367;28;20275;-43
2022/03/19 05:44:22;;;;;;;14.40;7.73;;;2.60;99.90;;;;;;5035204;28;20331;-44
2022/03/19 05:46:48;;;;;;;17.40;7.50;;;2.60;99.90;;;;;;5035451;28;20204;-44
2022/03/19 05:49:14;;;;;;;12.93;6.97;;;2.60;99.90;;;;;;5035030;28;20272;-43
2022/03/19 05:51:40;;;;;;;16.77;8.40;;;2.60;99.90;;;;;;5034946;28;20223;-44
2022/03/19 05:54:06;;;;;;;17.30;8.10;;;2.60;99.90;;;;;;5035027;28;20189;-44
2022/03/19 05:56:32;;;;;;;15.70;7.80;;;2.60;99.90;;;;;;5035057;28;20640;-44
2022/03/19 05:58:59;;;;;;;21.73;8.27;;;2.60;99.90;;;;;;5034912;28;20664;-44
2022/03/19 06:01:27;;;;;;;12.23;7.80;;;2.70;99.90;;;;;;5017359;28;20187;-44
2022/03/19 06:03:58;;;;;;;11.20;7.73;;;2.70;99.90;;;;;;5035464;28;20649;-45
2022/03/19 06:06:24;;;;;;;16.20;7.37;;;2.70;99.90;;;;;;5035237;28;20206;-44
2022/03/19 06:08:50;;;;;;;11.87;8.07;;;2.70;99.90;;;;;;5036195;28;20208;-44
2022/03/19 06:11:15;;;;;;;22.13;8.43;;;2.70;99.90;;;;;;5034666;28;20548;-45
2022/03/19 06:13:41;;;;;;;15.80;8.77;;;2.70;99.90;;;;;;5034567;28;20177;-45
2022/03/19 06:16:07;;;;;;;16.87;8.87;;;2.80;99.90;;;;;;5034509;28;20176;-44
2022/03/19 06:18:33;;;;;;;17.57;8.80;;;2.80;99.90;;;;;;5034414;28;20700;-44
2022/03/19 06:20:58;;;;;;;16.50;9.23;;;2.90;99.90;;;;;;5034471;28;20176;-44
2022/03/19 06:23:25;;;;;;;15.27;9.23;;;3.00;99.90;;;;;;5034429;28;20594;-45
2022/03/19 06:25:51;;;;;;;20.47;9.00;;;3.10;99.90;;;;;;5033101;28;20184;-44
2022/03/19 06:28:17;;;;;;;20.33;10.53;;;3.20;99.90;;;;;;5034591;28;20175;-44
2022/03/19 06:30:43;;;;;;;14.87;9.00;;;3.20;99.90;;;;;;5034256;28;20223;-45
2022/03/19 06:33:11;;;;;;;14.10;8.80;;;3.30;99.90;;;;;;5034443;28;20217;-46
2022/03/19 06:38:25;;;;;;;15.87;9.43;;;3.40;99.90;;;;;;5034618;28;20211;-44
2022/03/19 06:40:50;;;;;;;25.77;10.03;;;3.50;99.90;;;;;;5034207;28;20231;-43
2022/03/19 06:43:16;;;;;;;21.60;11.33;;;3.60;99.90;;;;;;5034277;28;20278;-46
2022/03/19 06:45:42;;;;;;;23.00;11.27;;;3.70;99.90;;;;;;5034236;28;20184;-42
2022/03/19 06:48:07;;;;;;;15.97;9.87;;;3.80;99.90;;;;;;5033829;28;20327;-44
2022/03/19 06:50:33;;;;;;;19.43;10.57;;;3.90;99.90;;;;;;5034118;28;20180;-46
2022/03/19 06:52:59;;;;;;;16.80;9.87;;;4.00;99.90;;;;;;5034053;28;20211;-45
2022/03/19 06:55:24;;;;;;;20.47;10.70;;;4.00;99.90;;;;;;5033829;28;20181;-44
2022/03/19 06:57:50;;;;;;;18.03;10.70;;;4.10;99.90;;;;;;5033806;28;20176;-46
2022/03/19 07:00:16;;;;;;;17.20;10.60;;;4.20;99.90;;;;;;5033617;28;20708;-43
2022/03/19 07:02:53;;;;;;;18.00;10.83;;;4.30;99.90;;;;;;5033694;28;20210;-43
2022/03/19 07:05:20;;;;;;;22.43;11.43;;;4.40;99.90;;;;;;5033640;28;20211;-46
2022/03/19 07:07:47;;;;;;;20.47;11.23;;;4.40;99.90;;;;;;5033669;28;20172;-47
2022/03/19 07:10:13;;;;;;;20.50;11.47;;;4.60;99.90;;;;;;5033614;28;20243;-43
2022/03/19 07:12:52;;;;;;;22.03;11.47;;;4.70;99.90;;;;;;5033765;28;20545;-47
2022/03/19 07:15:20;;;;;;;17.37;10.40;;;4.80;99.90;;;;;;5033737;28;20307;-43
2022/03/19 07:17:46;;;;;;;17.90;9.87;;;5.00;99.90;;;;;;5033585;28;20267;-44
2022/03/19 07:20:16;;;;;;;22.20;10.93;;;5.20;99.90;;;;;;5033682;28;20286;-43
2022/03/19 07:23:02;;;;;;;26.67;9.97;;;5.30;99.90;;;;;;5033581;28;20230;-44
2022/03/19 07:25:30;;;;;;;25.20;10.90;;;5.50;99.90;;;;;;5034099;28;20636;-45
2022/03/19 07:27:58;;;;;;;24.60;10.00;;;5.60;99.90;;;;;;5033218;28;20188;-45
2022/03/19 07:30:23;;;;;;;17.03;10.90;;;5.80;99.90;;;;;;5033470;28;20211;-46
2022/03/19 07:32:49;;;;;;;23.47;10.43;;;5.90;99.90;;;;;;5033534;28;20295;-45
2022/03/19 07:35:15;;;;;;;14.50;9.57;;;6.00;99.90;;;;;;5033641;28;20185;-44
2022/03/19 07:37:43;;;;;;;19.80;10.07;;;6.10;99.90;;;;;;5033584;28;20188;-43
2022/03/19 07:40:11;;;;;;;19.87;10.57;;;6.20;99.90;;;;;;5032628;28;20220;-44
2022/03/19 07:42:37;;;;;;;15.23;8.23;;;6.30;99.90;;;;;;5033381;28;20307;-48
2022/03/19 07:45:04;;;;;;;16.90;9.50;;;6.40;99.90;;;;;;5033238;28;20173;-44
2022/03/19 07:47:30;;;;;;;11.67;9.10;;;6.50;99.90;;;;;;5033321;28;20174;-43
2022/03/19 07:49:56;;;;;;;15.40;8.73;;;6.60;99.90;;;;;;5033587;28;20246;-45
2022/03/19 07:52:21;;;;;;;19.07;8.90;;;6.70;99.90;;;;;;5033540;28;20662;-44
2022/03/19 07:54:47;;;;;;;13.47;8.47;;;6.80;99.90;;;;;;5033286;28;20206;-44
2022/03/19 07:57:13;;;;;;;15.90;7.77;;;6.90;99.90;;;;;;5033142;28;20180;-41
2022/03/19 07:59:40;;;;;;;16.10;8.43;;;7.00;99.90;;;;;;5033252;28;20221;-43
2022/03/19 08:02:05;;;;;;;12.23;7.57;;;7.10;99.90;;;;;;5033285;28;20189;-43
2022/03/19 08:04:31;;;;;;;13.83;7.97;;;7.20;99.90;;;;;;5033137;28;20708;-44
2022/03/19 08:06:57;;;;;;;16.00;8.00;;;7.30;99.90;;;;;;5033515;28;20220;-43
2022/03/19 08:09:24;;;;;;;12.30;7.30;;;7.40;99.90;;;;;;5031724;28;20197;-42
2022/03/19 08:11:51;;;;;;;13.70;7.57;;;7.50;99.90;;;;;;5032808;28;20212;-45
2022/03/19 08:14:18;;;;;;;10.40;7.20;;;7.60;99.90;;;;;;5032976;28;20165;-44
2022/03/19 08:16:46;;;;;;;11.03;6.63;;;7.60;99.90;;;;;;5015062;28;20555;-45
2022/03/19 08:19:12;;;;;;;15.90;7.87;;;7.80;99.90;;;;;;5033202;28;20219;-45
2022/03/19 08:21:38;;;;;;;11.67;6.93;;;7.90;99.90;;;;;;5033017;28;20200;-41
2022/03/19 08:24:07;;;;;;;12.67;6.97;;;7.90;99.90;;;;;;5032901;28;20199;-45
2022/03/19 08:26:34;;;;;;;14.57;7.23;;;8.00;99.90;;;;;;5032965;28;20175;-45
2022/03/19 08:28:59;;;;;;;15.03;6.93;;;8.10;99.90;;;;;;5032829;28;20226;-44
2022/03/19 08:31:25;;;;;;;14.00;7.27;;;8.20;99.90;;;;;;5032958;28;20286;-43
2022/03/19 08:33:51;;;;;;;10.03;6.27;;;8.40;99.90;;;;;;5032755;28;20278;-43
2022/03/19 08:36:17;;;;;;;9.83;6.67;;;8.40;99.90;;;;;;5015082;28;20180;-45
2022/03/19 08:41:27;;;;;;;13.03;7.23;;;8.60;99.90;;;;;;5033181;28;20687;-46
2022/03/19 08:43:53;;;;;;;13.67;6.87;;;8.80;99.90;;;;;;5033015;28;20267;-44
2022/03/19 08:46:19;;;;;;;17.33;6.27;;;8.80;99.90;;;;;;5032827;28;20185;-45
2022/03/19 08:48:45;;;;;;;19.80;6.53;;;9.00;99.90;;;;;;5032971;28;20673;-46
2022/03/19 08:53:54;;;;;;;11.30;6.10;;;9.10;99.90;;;;;;5036569;28;20184;-45
2022/03/19 08:56:20;;;;;;;10.83;5.43;;;9.20;99.90;;;;;;5034838;28;20637;-43
2022/03/19 08:58:46;;;;;;;12.10;5.97;;;9.30;99.90;;;;;;5036189;28;20211;-45
2022/03/19 09:01:12;;;;;;;10.60;5.57;;;9.40;99.90;;;;;;5036789;28;20181;-43
2022/03/19 09:03:37;;;;;;;11.73;5.47;;;9.50;99.90;;;;;;5037074;28;20203;-46
2022/03/19 09:06:03;;;;;;;8.73;5.20;;;9.60;99.90;;;;;;5037435;28;20177;-44
2022/03/19 09:08:28;;;;;;;7.43;4.90;;;9.70;99.90;;;;;;5036638;28;20201;-43
2022/03/19 09:10:57;;;;;;;9.37;5.47;;;9.80;99.90;;;;;;5035828;28;20188;-45
2022/03/19 09:13:23;;;;;;;33.63;6.93;;;10.00;99.90;;;;;;5036412;28;20182;-43
2022/03/19 09:15:49;;;;;;;21.40;6.00;;;10.00;99.90;;;;;;5035183;28;20182;-44
2022/03/19 09:18:16;;;;;;;13.40;5.40;;;10.00;99.90;;;;;;5037097;28;20194;-45
2022/03/19 09:20:42;;;;;;;12.23;5.03;;;10.10;99.90;;;;;;5036612;28;20209;-45
2022/03/19 09:23:08;;;;;;;13.47;5.10;;;10.20;99.90;;;;;;5035845;28;20644;-45
2022/03/19 09:25:34;;;;;;;12.93;5.57;;;10.30;99.90;;;;;;5035515;28;20190;-45
2022/03/19 09:27:59;;;;;;;11.63;4.93;;;10.30;99.90;;;;;;5035519;28;20184;-43
2022/03/19 09:30:25;;;;;;;9.90;5.37;;;10.30;99.90;;;;;;5035452;28;20209;-46
2022/03/19 09:32:50;;;;;;;8.70;4.90;;;10.30;99.90;;;;;;5035400;28;20307;-44
2022/03/19 09:35:16;;;;;;;9.93;5.37;;;10.30;99.90;;;;;;5035382;28;20175;-44
2022/03/19 09:37:42;;;;;;;6.27;4.00;;;10.40;99.90;;;;;;5035531;28;20547;-44
2022/03/19 09:40:08;;;;;;;20.13;5.03;;;10.40;99.90;;;;;;5035578;28;20200;-46
2022/03/19 09:42:45;;;;;;;11.07;4.53;;;10.40;99.90;;;;;;5035802;28;20185;-46
2022/03/19 09:45:11;;;;;;;11.10;5.37;;;10.50;99.90;;;;;;5035677;28;20175;-46
2022/03/19 09:47:36;;;;;;;8.77;5.17;;;10.50;99.90;;;;;;5035148;28;20181;-47
2022/03/19 09:50:03;;;;;;;10.37;5.47;;;10.60;99.90;;;;;;5035307;28;20200;-45
2022/03/19 09:52:34;;;;;;;8.87;5.03;;;10.60;99.90;;;;;;5035047;28;20212;-46
2022/03/19 09:55:00;;;;;;;13.17;5.80;;;10.70;99.90;;;;;;5035353;28;20169;-47
2022/03/19 09:57:26;;;;;;;10.97;5.47;;;10.80;99.90;;;;;;5033710;28;20208;-45
2022/03/19 09:59:51;;;;;;;17.90;5.17;;;10.80;99.90;;;;;;5035190;28;20656;-44
2022/03/19 10:02:18;;;;;;;8.53;5.80;;;10.80;99.90;;;;;;5034511;28;20219;-44
2022/03/19 10:04:44;;;;;;;9.80;5.37;;;11.00;99.90;;;;;;5034994;28;20185;-45
2022/03/19 10:09:56;;;;;;;7.60;4.43;;;11.00;99.90;;;;;;5034706;28;20216;-45
2022/03/19 10:12:25;;;;;;;8.33;4.57;;;11.10;99.90;;;;;;5034653;28;20204;-45
2022/03/19 10:14:55;;;;;;;11.20;4.37;;;11.20;99.90;;;;;;5035548;28;20169;-43
2022/03/19 10:17:34;;;;;;;11.43;4.20;;;11.30;99.90;;;;;;5034974;28;20638;-46
2022/03/19 10:20:04;;;;;;;9.77;4.27;;;11.40;99.90;;;;;;5034566;28;20197;-45
2022/03/19 10:22:30;;;;;;;8.83;4.10;;;11.40;99.90;;;;;;5034559;28;20252;-44
2022/03/19 10:25:00;;;;;;;10.17;5.10;;;11.50;99.90;;;;;;5034975;28;20216;-47
2022/03/19 10:27:31;;;;;;;9.40;4.63;;;11.60;99.90;;;;;;5033336;28;20177;-44
2022/03/19 10:30:09;;;;;;;10.10;4.73;;;11.80;99.90;;;;;;5034378;28;20199;-45
2022/03/19 10:32:35;;;;;;;13.17;4.40;;;12.00;99.90;;;;;;5034575;28;20209;-45
2022/03/19 10:35:02;;;;;;;8.53;3.63;;;12.20;99.90;;;;;;5034103;28;20633;-46
2022/03/19 10:37:39;;;;;;;7.27;4.00;;;12.30;99.90;;;;;;5034389;28;20538;-44
2022/03/19 10:40:07;;;;;;;7.67;4.03;;;12.40;99.90;;;;;;5034116;28;20200;-44
2022/03/19 10:42:40;;;;;;;10.47;4.13;;;12.50;99.90;;;;;;5033924;28;20663;-44
2022/03/19 10:45:14;;;;;;;8.90;3.87;;;12.60;99.90;;;;;;5034309;28;20177;-43
2022/03/19 10:47:44;;;;;;;8.87;3.57;;;12.80;99.90;;;;;;5033954;28;20248;-46
2022/03/19 10:50:16;;;;;;;13.10;3.40;;;12.90;99.90;;;;;;5034394;28;20232;-45
2022/03/19 10:52:42;;;;;;;7.73;3.40;;;13.10;99.90;;;;;;5034468;28;20644;-45
2022/03/19 10:55:09;;;;;;;6.73;3.70;;;13.20;99.90;;;;;;5033888;28;20184;-45
2022/03/19 10:57:35;;;;;;;5.50;3.33;;;13.40;99.90;;;;;;5034138;28;20695;-45
2022/03/19 11:00:01;;;;;;;7.70;4.00;;;13.40;99.90;;;;;;5034245;28;20201;-43
2022/03/19 11:02:28;;;;;;;7.40;3.10;;;13.30;99.90;;;;;;5034310;28;20188;-44
2022/03/19 11:04:57;;;;;;;9.90;4.10;;;13.20;99.90;;;;;;5033663;28;20211;-46
2022/03/19 11:07:24;;;;;;;12.73;3.77;;;13.20;99.90;;;;;;5033679;28;20181;-44
2022/03/19 11:09:55;;;;;;;5.23;3.23;;;13.20;99.90;;;;;;5033545;28;20211;-43
2022/03/19 11:12:23;;;;;;;6.47;3.60;;;13.30;99.90;;;;;;5033755;28;20600;-45
2022/03/19 11:14:53;;;;;;;8.77;3.37;;;13.30;99.90;;;;;;5033323;28;20173;-45
2022/03/19 11:17:32;;;;;;;6.80;2.73;;;13.20;99.90;;;;;;5033629;28;20207;-43
2022/03/19 11:20:04;;;;;;;7.00;3.07;;;13.20;99.90;;;;;;5033454;28;20208;-45
2022/03/19 11:22:41;;;;;;;5.10;2.90;;;13.20;99.90;;;;;;5033712;28;20232;-46
2022/03/19 11:25:26;;;;;;;6.00;2.80;;;13.20;99.90;;;;;;5033480;28;20640;-45
2022/03/19 11:28:06;;;;;;;8.37;3.07;;;13.30;99.90;;;;;;5033481;28;20173;-46
2022/03/19 11:30:34;;;;;;;6.20;2.60;;;13.40;99.90;;;;;;5033335;28;20598;-43
2022/03/19 11:33:17;;;;;;;3.87;2.47;;;13.50;99.90;;;;;;5033366;28;20227;-45
2022/03/19 11:36:05;;;;;;;3.90;2.10;;;13.60;99.90;;;;;;5033384;28;20254;-45
2022/03/19 11:38:39;;;;;;;5.40;2.30;;;13.60;99.90;;;;;;5032634;28;20213;-46
2022/03/19 11:41:22;;;;;;;5.13;2.20;;;13.70;99.90;;;;;;5033305;28;20690;-46
2022/03/19 11:43:49;;;;;;;5.10;2.00;;;13.80;99.90;;;;;;5033509;28;20308;-47
2022/03/19 11:46:15;;;;;;;4.43;2.00;;;13.90;99.90;;;;;;5033472;28;20173;-45
2022/03/19 11:48:44;;;;;;;4.63;2.33;;;14.00;99.90;;;;;;5033156;28;20196;-46
2022/03/19 11:51:38;;;;;;;3.73;1.87;;;14.10;99.70;;;;;;5033061;28;20188;-43
2022/03/19 11:54:15;;;;;;;7.53;3.10;;;14.20;98.50;;;;;;5026176;28;20188;-42
2022/03/19 11:56:43;;;;;;;3.67;2.27;;;14.20;96.40;;;;;;5033475;28;20220;-40
2022/03/19 11:59:31;;;;;;;12.73;6.77;;;14.20;96.80;;;;;;5032997;28;20200;-44
2022/03/19 12:02:09;;;;;;;10.67;4.37;;;14.20;94.40;;;;;;5033059;28;20722;-41
2022/03/19 12:04:51;;;;;;;11.67;7.73;;;14.10;93.90;;;;;;5033010;28;20173;-40
2022/03/19 12:07:39;;;;;;;10.27;5.53;;;14.10;92.70;;;;;;5033340;28;20165;-42
2022/03/19 12:10:27;;;;;;;6.73;4.03;;;14.10;92.50;;;;;;5033956;28;20228;-40
2022/03/19 12:12:57;;;;;;;6.93;3.30;;;14.10;91.00;;;;;;5032794;28;20216;-39
2022/03/19 12:15:31;;;;;;;10.03;3.53;;;14.20;91.60;;;;;;5032896;28;20586;-42
2022/03/19 12:18:22;;;;;;;3.63;2.50;;;14.10;88.40;;;;;;5032839;28;20188;-42
2022/03/19 12:20:49;;;;;;;4.27;2.90;;;14.20;89.70;;;;;;5032874;28;20542;-41
2022/03/19 12:23:14;;;;;;;6.40;2.60;;;14.20;91.10;;;;;;5032899;28;20188;-40
2022/03/19 12:25:43;;;;;;;5.87;2.90;;;14.30;90.30;;;;;;5034500;28;20312;-42
2022/03/19 12:28:16;;;;;;;9.27;2.73;;;14.30;90.30;;;;;;5036805;28;20192;-40
2022/03/19 12:30:41;;;;;;;18.07;3.03;;;14.40;92.10;;;;;;5036882;28;20177;-42
2022/03/19 12:33:07;;;;;;;6.00;2.80;;;14.30;93.70;;;;;;5036355;28;20266;-41
2022/03/19 12:35:32;;;;;;;7.27;2.60;;;14.20;93.70;;;;;;5036485;28;20184;-39
2022/03/19 12:37:58;;;;;;;8.30;2.50;;;14.10;93.30;;;;;;5036696;28;20173;-39
2022/03/19 12:40:26;;;;;;;11.17;3.30;;;14.00;94.10;;;;;;5036726;28;20280;-42
2022/03/19 12:42:59;;;;;;;8.40;3.17;;;14.10;93.60;;;;;;5036562;28;20185;-42
2022/03/19 12:45:39;;;;;;;6.80;2.60;;;14.20;93.20;;;;;;5036523;28;20171;-41
2022/03/19 12:48:13;;;;;;;5.83;2.67;;;14.20;92.80;;;;;;5036453;28;20173;-41
2022/03/19 12:50:39;;;;;;;10.07;3.53;;;14.20;92.60;;;;;;5037238;28;20264;-41
2022/03/19 12:53:05;;;;;;;18.60;6.87;;;14.20;92.90;;;;;;5036734;28;20556;-42
2022/03/19 12:55:30;;;;;;;7.00;3.13;;;14.20;92.70;;;;;;5036077;28;20177;-42
2022/03/19 12:57:58;;;;;;;8.83;2.70;;;14.20;92.40;;;;;;5036274;28;20260;-41
2022/03/19 13:00:25;;;;;;;4.57;2.20;;;14.10;91.60;;;;;;5035871;28;20657;-41
2022/03/19 13:02:52;;;;;;;12.07;2.70;;;14.10;92.60;;;;;;5036283;28;20530;-42
2022/03/19 13:05:18;;;;;;;8.63;3.07;;;14.00;91.90;;;;;;5036228;28;20180;-42
2022/03/19 13:08:05;;;;;;;6.43;3.07;;;14.00;91.70;;;;;;5036070;28;20180;-41